sensor_id;sensor_type;location;lat;lon;timestamp;temperature;humidity
1205;DHT22;592;48.764;9.174;2023-09-18T00:02:01;21.30;99.90
1205;DHT22;592;48.764;9.174;2023-09-18T00:04:27;21.40;99.90
1205;DHT22;592;48.764;9.174;2023-09-18T00:06:54;21.40;99.90
1205;DHT22;592;48.764;9.174;2023-09-18T00:09:21;21.50;99.90
1205;DHT22;592;48.764;9.174;2023-09-18T00:11:48;21.50;99.90
1205;DHT22;592;48.764;9.174;2023-09-18T00:14:16;21.50;99.90
1205;DHT22;592;48.764;9.174;2023-09-18T00:16:42;21.60;99.90
1205;DHT22;592;48.764;9.174;2023-09-18T00:19:09;21.60;99.90
1205;DHT22;592;48.764;9.174;2023-09-18T00:21:36;21.60;99.90
1205;DHT22;592;48.764;9.174;2023-09-18T00:24:03;21.60;99.90
1205;DHT22;592;48.764;9.174;2023-09-18T00:26:30;21.60;99.90
1205;DHT22;592;48.764;9.174;2023-09-18T00:28:56;21.50;99.90
1205;DHT22;592;48.764;9.174;2023-09-18T00:31:24;21.50;99.90
1205;DHT22;592;48.764;9.174;2023-09-18T00:33:51;21.50;99.90
1205;DHT22;592;48.764;9.174;2023-09-18T00:36:18;21.50;99.90
1205;DHT22;592;48.764;9.174;2023-09-18T00:38:44;21.50;99.90
1205;DHT22;592;48.764;9.174;2023-09-18T00:41:11;21.40;99.90
1205;DHT22;592;48.764;9.174;2023-09-18T00:43:38;21.30;99.90
1205;DHT22;592;48.764;9.174;2023-09-18T00:46:05;21.30;99.90
1205;DHT22;592;48.764;9.174;2023-09-18T00:48:33;21.30;99.90
1205;DHT22;592;48.764;9.174;2023-09-18T00:51:00;21.40;99.90
1205;DHT22;592;48.764;9.174;2023-09-18T00:53:27;21.40;99.90
1205;DHT22;592;48.764;9.174;2023-09-18T00:55:56;21.40;99.90
1205;DHT22;592;48.764;9.174;2023-09-18T00:58:24;21.40;99.90
1205;DHT22;592;48.764;9.174;2023-09-18T01:00:51;21.30;99.90
1205;DHT22;592;48.764;9.174;2023-09-18T01:03:19;21.10;99.90
1205;DHT22;592;48.764;9.174;2023-09-18T01:05:47;21.00;99.90
1205;DHT22;592;48.764;9.174;2023-09-18T01:08:14;20.90;99.90
1205;DHT22;592;48.764;9.174;2023-09-18T01:10:47;21.00;99.90
1205;DHT22;592;48.764;9.174;2023-09-18T01:13:20;21.10;99.90
1205;DHT22;592;48.764;9.174;2023-09-18T01:15:54;21.20;99.90
1205;DHT22;592;48.764;9.174;2023-09-18T01:18:21;21.30;99.90
1205;DHT22;592;48.764;9.174;2023-09-18T01:20:49;21.40;99.90
1205;DHT22;592;48.764;9.174;2023-09-18T01:23:17;21.40;99.90
1205;DHT22;592;48.764;9.174;2023-09-18T01:25:43;21.50;99.90
1205;DHT22;592;48.764;9.174;2023-09-18T01:28:10;21.60;99.90
1205;DHT22;592;48.764;9.174;2023-09-18T01:30:37;21.70;99.90
1205;DHT22;592;48.764;9.174;2023-09-18T01:33:04;21.70;99.90
1205;DHT22;592;48.764;9.174;2023-09-18T01:35:31;21.80;99.90
1205;DHT22;592;48.764;9.174;2023-09-18T01:38:00;21.90;99.90
1205;DHT22;592;48.764;9.174;2023-09-18T01:40:30;21.90;99.90
1205;DHT22;592;48.764;9.174;2023-09-18T01:42:58;21.90;99.90
1205;DHT22;592;48.764;9.174;2023-09-18T01:45:24;22.00;99.90
1205;DHT22;592;48.764;9.174;2023-09-18T01:47:51;22.00;99.90
1205;DHT22;592;48.764;9.174;2023-09-18T01:50:18;22.10;99.90
1205;DHT22;592;48.764;9.174;2023-09-18T01:52:44;22.10;99.90
1205;DHT22;592;48.764;9.174;2023-09-18T01:55:11;22.10;99.90
1205;DHT22;592;48.764;9.174;2023-09-18T01:57:39;22.10;99.90
1205;DHT22;592;48.764;9.174;2023-09-18T02:00:08;22.20;99.90
1205;DHT22;592;48.764;9.174;2023-09-18T02:02:35;22.20;99.90
1205;DHT22;592;48.764;9.174;2023-09-18T02:05:02;22.30;99.90
1205;DHT22;592;48.764;9.174;2023-09-18T02:07:29;22.20;99.90
1205;DHT22;592;48.764;9.174;2023-09-18T02:09:57;22.00;99.90
1205;DHT22;592;48.764;9.174;2023-09-18T02:12:23;22.00;99.90
1205;DHT22;592;48.764;9.174;2023-09-18T02:14:51;22.00;99.90
1205;DHT22;592;48.764;9.174;2023-09-18T02:17:18;21.60;99.90
1205;DHT22;592;48.764;9.174;2023-09-18T02:19:46;21.40;99.90
1205;DHT22;592;48.764;9.174;2023-09-18T02:22:13;21.40;99.90
1205;DHT22;592;48.764;9.174;2023-09-18T02:24:39;20.50;99.90
1205;DHT22;592;48.764;9.174;2023-09-18T02:27:06;20.40;99.90
1205;DHT22;592;48.764;9.174;2023-09-18T02:29:33;20.70;99.90
1205;DHT22;592;48.764;9.174;2023-09-18T02:32:01;20.30;99.90
1205;DHT22;592;48.764;9.174;2023-09-18T02:34:28;20.10;99.90
1205;DHT22;592;48.764;9.174;2023-09-18T02:36:54;19.60;99.90
1205;DHT22;592;48.764;9.174;2023-09-18T02:39:21;19.70;99.90
1205;DHT22;592;48.764;9.174;2023-09-18T02:41:48;19.70;99.90
1205;DHT22;592;48.764;9.174;2023-09-18T02:44:14;19.80;99.90
1205;DHT22;592;48.764;9.174;2023-09-18T02:46:42;19.90;99.90
1205;DHT22;592;48.764;9.174;2023-09-18T02:49:10;20.20;99.90
1205;DHT22;592;48.764;9.174;2023-09-18T02:51:36;20.30;99.90
1205;DHT22;592;48.764;9.174;2023-09-18T02:54:04;20.60;99.90
1205;DHT22;592;48.764;9.174;2023-09-18T02:56:30;20.70;99.90
1205;DHT22;592;48.764;9.174;2023-09-18T02:58:57;20.70;99.90
1205;DHT22;592;48.764;9.174;2023-09-18T03:01:24;20.70;99.90
1205;DHT22;592;48.764;9.174;2023-09-18T03:03:50;20.70;99.90
1205;DHT22;592;48.764;9.174;2023-09-18T03:06:18;20.60;99.90
1205;DHT22;592;48.764;9.174;2023-09-18T03:08:45;20.60;99.90
1205;DHT22;592;48.764;9.174;2023-09-18T03:11:12;20.60;99.90
1205;DHT22;592;48.764;9.174;2023-09-18T03:13:43;20.60;99.90
1205;DHT22;592;48.764;9.174;2023-09-18T03:16:10;20.60;99.90
1205;DHT22;592;48.764;9.174;2023-09-18T03:18:37;20.70;99.90
1205;DHT22;592;48.764;9.174;2023-09-18T03:21:04;20.60;99.90
1205;DHT22;592;48.764;9.174;2023-09-18T03:23:32;20.70;99.90
1205;DHT22;592;48.764;9.174;2023-09-18T03:25:59;20.40;99.90
1205;DHT22;592;48.764;9.174;2023-09-18T03:28:26;20.40;99.90
1205;DHT22;592;48.764;9.174;2023-09-18T03:30:53;20.40;99.90
1205;DHT22;592;48.764;9.174;2023-09-18T03:33:20;21.70;99.90
1205;DHT22;592;48.764;9.174;2023-09-18T03:35:47;20.50;99.90
1205;DHT22;592;48.764;9.174;2023-09-18T03:38:15;20.40;99.90
1205;DHT22;592;48.764;9.174;2023-09-18T03:40:43;20.40;99.90
1205;DHT22;592;48.764;9.174;2023-09-18T03:43:10;20.40;99.90
1205;DHT22;592;48.764;9.174;2023-09-18T03:45:37;20.50;99.90
1205;DHT22;592;48.764;9.174;2023-09-18T03:48:06;20.50;99.90
1205;DHT22;592;48.764;9.174;2023-09-18T03:50:33;20.40;99.90
1205;DHT22;592;48.764;9.174;2023-09-18T03:52:59;20.40;99.90
1205;DHT22;592;48.764;9.174;2023-09-18T03:55:26;20.30;99.90
1205;DHT22;592;48.764;9.174;2023-09-18T03:57:54;20.40;99.90
1205;DHT22;592;48.764;9.174;2023-09-18T04:00:21;20.40;99.90
1205;DHT22;592;48.764;9.174;2023-09-18T04:02:48;20.60;99.90
1205;DHT22;592;48.764;9.174;2023-09-18T04:05:14;20.60;99.90
1205;DHT22;592;48.764;9.174;2023-09-18T04:07:41;20.70;99.90
1205;DHT22;592;48.764;9.174;2023-09-18T04:10:11;20.60;99.90
1205;DHT22;592;48.764;9.174;2023-09-18T04:12:43;20.50;99.90
1205;DHT22;592;48.764;9.174;2023-09-18T04:15:14;20.60;99.90
1205;DHT22;592;48.764;9.174;2023-09-18T04:17:40;20.70;99.90
1205;DHT22;592;48.764;9.174;2023-09-18T04:20:08;20.70;99.90
1205;DHT22;592;48.764;9.174;2023-09-18T04:22:35;20.70;99.90
1205;DHT22;592;48.764;9.174;2023-09-18T04:25:02;20.70;99.90
1205;DHT22;592;48.764;9.174;2023-09-18T04:27:30;20.80;99.90
1205;DHT22;592;48.764;9.174;2023-09-18T04:29:57;20.70;99.90
1205;DHT22;592;48.764;9.174;2023-09-18T04:32:27;20.70;99.90
1205;DHT22;592;48.764;9.174;2023-09-18T04:34:54;20.80;99.90
1205;DHT22;592;48.764;9.174;2023-09-18T04:37:21;20.80;99.90
1205;DHT22;592;48.764;9.174;2023-09-18T04:39:48;20.80;99.90
1205;DHT22;592;48.764;9.174;2023-09-18T04:42:14;20.80;99.90
1205;DHT22;592;48.764;9.174;2023-09-18T04:44:41;20.80;99.90
1205;DHT22;592;48.764;9.174;2023-09-18T04:47:08;20.80;99.90
1205;DHT22;592;48.764;9.174;2023-09-18T04:49:36;20.80;99.90
1205;DHT22;592;48.764;9.174;2023-09-18T04:52:03;20.70;99.90
1205;DHT22;592;48.764;9.174;2023-09-18T04:54:30;20.60;99.90
1205;DHT22;592;48.764;9.174;2023-09-18T04:56:57;20.50;99.90
1205;DHT22;592;48.764;9.174;2023-09-18T04:59:24;20.60;99.90
1205;DHT22;592;48.764;9.174;2023-09-18T05:01:51;20.50;99.90
1205;DHT22;592;48.764;9.174;2023-09-18T05:04:17;20.60;99.90
1205;DHT22;592;48.764;9.174;2023-09-18T05:06:45;20.60;99.90
1205;DHT22;592;48.764;9.174;2023-09-18T05:09:12;20.70;99.90
1205;DHT22;592;48.764;9.174;2023-09-18T05:11:40;20.70;99.90
1205;DHT22;592;48.764;9.174;2023-09-18T05:14:07;20.70;99.90
1205;DHT22;592;48.764;9.174;2023-09-18T05:16:34;20.70;99.90
1205;DHT22;592;48.764;9.174;2023-09-18T05:19:01;20.60;99.90
1205;DHT22;592;48.764;9.174;2023-09-18T05:21:27;20.60;99.90
1205;DHT22;592;48.764;9.174;2023-09-18T05:23:56;20.50;99.90
1205;DHT22;592;48.764;9.174;2023-09-18T05:26:23;20.50;99.90
1205;DHT22;592;48.764;9.174;2023-09-18T05:28:50;20.40;99.90
1205;DHT22;592;48.764;9.174;2023-09-18T05:31:19;20.30;99.90
1205;DHT22;592;48.764;9.174;2023-09-18T05:33:46;20.30;99.90
1205;DHT22;592;48.764;9.174;2023-09-18T05:36:13;20.40;99.90
1205;DHT22;592;48.764;9.174;2023-09-18T05:38:40;20.40;99.90
1205;DHT22;592;48.764;9.174;2023-09-18T05:41:08;20.20;99.90
1205;DHT22;592;48.764;9.174;2023-09-18T05:43:35;20.20;99.90
1205;DHT22;592;48.764;9.174;2023-09-18T05:46:02;20.20;99.90
1205;DHT22;592;48.764;9.174;2023-09-18T05:48:29;20.10;99.90
1205;DHT22;592;48.764;9.174;2023-09-18T05:50:56;20.00;99.90
1205;DHT22;592;48.764;9.174;2023-09-18T05:53:23;20.10;99.90
1205;DHT22;592;48.764;9.174;2023-09-18T05:55:50;20.10;99.90
1205;DHT22;592;48.764;9.174;2023-09-18T05:58:18;20.20;99.90
1205;DHT22;592;48.764;9.174;2023-09-18T06:00:50;20.20;99.90
1205;DHT22;592;48.764;9.174;2023-09-18T06:03:16;20.20;99.90
1205;DHT22;592;48.764;9.174;2023-09-18T06:05:45;20.20;99.90
1205;DHT22;592;48.764;9.174;2023-09-18T06:08:12;20.20;99.90
1205;DHT22;592;48.764;9.174;2023-09-18T06:10:38;20.20;99.90
1205;DHT22;592;48.764;9.174;2023-09-18T06:13:05;20.20;99.90
1205;DHT22;592;48.764;9.174;2023-09-18T06:15:33;20.10;99.90
1205;DHT22;592;48.764;9.174;2023-09-18T06:18:00;20.10;99.90
1205;DHT22;592;48.764;9.174;2023-09-18T06:20:27;20.10;99.90
1205;DHT22;592;48.764;9.174;2023-09-18T06:22:53;20.00;99.90
1205;DHT22;592;48.764;9.174;2023-09-18T06:25:20;20.10;99.90
1205;DHT22;592;48.764;9.174;2023-09-18T06:27:47;20.00;99.90
1205;DHT22;592;48.764;9.174;2023-09-18T06:30:14;19.90;99.90
1205;DHT22;592;48.764;9.174;2023-09-18T06:32:42;19.90;99.90
1205;DHT22;592;48.764;9.174;2023-09-18T06:35:08;20.10;99.90
1205;DHT22;592;48.764;9.174;2023-09-18T06:37:35;20.00;99.90
1205;DHT22;592;48.764;9.174;2023-09-18T06:40:02;20.20;99.90
1205;DHT22;592;48.764;9.174;2023-09-18T06:42:31;20.30;99.90
1205;DHT22;592;48.764;9.174;2023-09-18T06:44:58;20.20;99.90
1205;DHT22;592;48.764;9.174;2023-09-18T06:47:26;20.10;99.90
1205;DHT22;592;48.764;9.174;2023-09-18T06:49:54;20.10;99.90
1205;DHT22;592;48.764;9.174;2023-09-18T06:52:21;20.00;99.90
1205;DHT22;592;48.764;9.174;2023-09-18T06:54:48;20.10;99.90
1205;DHT22;592;48.764;9.174;2023-09-18T06:57:15;20.10;99.90
1205;DHT22;592;48.764;9.174;2023-09-18T06:59:41;20.10;99.90
1205;DHT22;592;48.764;9.174;2023-09-18T07:02:08;20.00;99.90
1205;DHT22;592;48.764;9.174;2023-09-18T07:04:35;20.10;99.90
1205;DHT22;592;48.764;9.174;2023-09-18T07:07:03;20.10;99.90
1205;DHT22;592;48.764;9.174;2023-09-18T07:09:30;20.10;99.90
1205;DHT22;592;48.764;9.174;2023-09-18T07:11:57;20.10;99.90
1205;DHT22;592;48.764;9.174;2023-09-18T07:14:24;20.30;99.90
1205;DHT22;592;48.764;9.174;2023-09-18T07:16:50;20.30;99.90
1205;DHT22;592;48.764;9.174;2023-09-18T07:19:17;20.40;99.90
1205;DHT22;592;48.764;9.174;2023-09-18T07:21:44;20.40;99.90
1205;DHT22;592;48.764;9.174;2023-09-18T07:24:12;20.40;99.90
1205;DHT22;592;48.764;9.174;2023-09-18T07:26:44;20.50;99.90
1205;DHT22;592;48.764;9.174;2023-09-18T07:29:11;20.60;99.90
1205;DHT22;592;48.764;9.174;2023-09-18T07:31:38;20.60;99.90
1205;DHT22;592;48.764;9.174;2023-09-18T07:34:05;20.60;99.90
1205;DHT22;592;48.764;9.174;2023-09-18T07:36:32;20.60;99.90
1205;DHT22;592;48.764;9.174;2023-09-18T07:38:59;20.60;99.90
1205;DHT22;592;48.764;9.174;2023-09-18T07:41:27;20.70;99.90
1205;DHT22;592;48.764;9.174;2023-09-18T07:43:53;20.70;99.90
1205;DHT22;592;48.764;9.174;2023-09-18T07:46:20;20.70;99.90
1205;DHT22;592;48.764;9.174;2023-09-18T07:48:47;20.70;99.90
1205;DHT22;592;48.764;9.174;2023-09-18T07:51:14;20.70;99.90
1205;DHT22;592;48.764;9.174;2023-09-18T07:53:42;20.70;99.90
1205;DHT22;592;48.764;9.174;2023-09-18T07:56:09;20.70;99.90
1205;DHT22;592;48.764;9.174;2023-09-18T07:58:37;20.70;99.90
1205;DHT22;592;48.764;9.174;2023-09-18T08:01:05;20.70;99.90
1205;DHT22;592;48.764;9.174;2023-09-18T08:03:34;20.80;99.90
1205;DHT22;592;48.764;9.174;2023-09-18T08:06:01;20.70;99.90
1205;DHT22;592;48.764;9.174;2023-09-18T08:08:30;20.80;99.90
1205;DHT22;592;48.764;9.174;2023-09-18T08:11:00;20.70;99.90
1205;DHT22;592;48.764;9.174;2023-09-18T08:13:27;20.70;99.90
1205;DHT22;592;48.764;9.174;2023-09-18T08:15:56;20.70;99.90
1205;DHT22;592;48.764;9.174;2023-09-18T08:18:22;20.80;99.90
1205;DHT22;592;48.764;9.174;2023-09-18T08:20:52;20.70;99.90
1205;DHT22;592;48.764;9.174;2023-09-18T08:23:18;20.70;99.90
1205;DHT22;592;48.764;9.174;2023-09-18T08:25:45;20.70;99.90
1205;DHT22;592;48.764;9.174;2023-09-18T08:28:12;20.60;99.90
1205;DHT22;592;48.764;9.174;2023-09-18T08:30:40;20.50;99.90
1205;DHT22;592;48.764;9.174;2023-09-18T08:33:11;20.50;99.90
1205;DHT22;592;48.764;9.174;2023-09-18T08:35:38;20.50;99.90
1205;DHT22;592;48.764;9.174;2023-09-18T08:38:05;20.40;99.90
1205;DHT22;592;48.764;9.174;2023-09-18T08:40:33;20.50;99.90
1205;DHT22;592;48.764;9.174;2023-09-18T08:43:01;20.30;99.90
1205;DHT22;592;48.764;9.174;2023-09-18T08:45:35;20.20;99.90
1205;DHT22;592;48.764;9.174;2023-09-18T08:48:04;20.30;99.90
1205;DHT22;592;48.764;9.174;2023-09-18T08:50:34;20.20;99.90
1205;DHT22;592;48.764;9.174;2023-09-18T08:53:01;20.00;99.90
1205;DHT22;592;48.764;9.174;2023-09-18T08:55:28;19.90;99.90
1205;DHT22;592;48.764;9.174;2023-09-18T08:57:56;19.90;99.90
1205;DHT22;592;48.764;9.174;2023-09-18T09:00:24;19.90;99.90
1205;DHT22;592;48.764;9.174;2023-09-18T09:02:51;19.90;99.90
1205;DHT22;592;48.764;9.174;2023-09-18T09:05:19;19.90;99.90
1205;DHT22;592;48.764;9.174;2023-09-18T09:07:48;20.00;99.90
1205;DHT22;592;48.764;9.174;2023-09-18T09:10:15;20.00;99.90
1205;DHT22;592;48.764;9.174;2023-09-18T09:13:03;19.70;99.90
1205;DHT22;592;48.764;9.174;2023-09-18T09:15:34;19.70;99.90
1205;DHT22;592;48.764;9.174;2023-09-18T09:18:03;19.60;99.90
1205;DHT22;592;48.764;9.174;2023-09-18T09:20:30;19.70;99.90
1205;DHT22;592;48.764;9.174;2023-09-18T09:23:02;19.80;99.90
1205;DHT22;592;48.764;9.174;2023-09-18T09:25:30;19.80;99.90
1205;DHT22;592;48.764;9.174;2023-09-18T09:27:59;19.60;99.90
1205;DHT22;592;48.764;9.174;2023-09-18T09:30:27;19.70;99.90
1205;DHT22;592;48.764;9.174;2023-09-18T09:32:56;19.70;99.90
1205;DHT22;592;48.764;9.174;2023-09-18T09:35:24;19.60;99.90
1205;DHT22;592;48.764;9.174;2023-09-18T09:37:53;19.50;99.90
1205;DHT22;592;48.764;9.174;2023-09-18T09:40:23;19.40;99.90
1205;DHT22;592;48.764;9.174;2023-09-18T09:42:51;19.40;99.90
1205;DHT22;592;48.764;9.174;2023-09-18T09:45:19;19.60;99.90
1205;DHT22;592;48.764;9.174;2023-09-18T09:47:46;19.60;99.90
1205;DHT22;592;48.764;9.174;2023-09-18T09:50:15;19.70;99.90
1205;DHT22;592;48.764;9.174;2023-09-18T09:52:45;19.60;99.90
1205;DHT22;592;48.764;9.174;2023-09-18T09:55:18;19.70;99.90
1205;DHT22;592;48.764;9.174;2023-09-18T09:57:52;20.00;99.90
1205;DHT22;592;48.764;9.174;2023-09-18T10:00:19;20.20;99.90
1205;DHT22;592;48.764;9.174;2023-09-18T10:02:56;20.30;99.90
1205;DHT22;592;48.764;9.174;2023-09-18T10:05:26;20.40;99.90
1205;DHT22;592;48.764;9.174;2023-09-18T10:07:54;20.70;99.90
1205;DHT22;592;48.764;9.174;2023-09-18T10:10:24;20.80;99.90
1205;DHT22;592;48.764;9.174;2023-09-18T10:12:54;20.90;99.90
1205;DHT22;592;48.764;9.174;2023-09-18T10:15:23;20.80;99.90
1205;DHT22;592;48.764;9.174;2023-09-18T10:17:54;20.60;99.90
1205;DHT22;592;48.764;9.174;2023-09-18T10:20:25;20.70;99.90
1205;DHT22;592;48.764;9.174;2023-09-18T10:22:56;20.40;99.90
1205;DHT22;592;48.764;9.174;2023-09-18T10:25:24;20.20;99.90
1205;DHT22;592;48.764;9.174;2023-09-18T10:27:55;20.20;99.90
1205;DHT22;592;48.764;9.174;2023-09-18T10:30:27;20.30;99.90
1205;DHT22;592;48.764;9.174;2023-09-18T10:32:56;20.10;99.90
1205;DHT22;592;48.764;9.174;2023-09-18T10:35:25;19.90;99.90
1205;DHT22;592;48.764;9.174;2023-09-18T10:37:54;19.90;99.90
1205;DHT22;592;48.764;9.174;2023-09-18T10:40:21;19.90;99.90
1205;DHT22;592;48.764;9.174;2023-09-18T10:42:50;20.00;99.90
1205;DHT22;592;48.764;9.174;2023-09-18T10:45:20;19.90;99.90
1205;DHT22;592;48.764;9.174;2023-09-18T10:47:48;19.80;99.90
1205;DHT22;592;48.764;9.174;2023-09-18T10:50:22;19.70;99.90
1205;DHT22;592;48.764;9.174;2023-09-18T10:52:49;19.70;99.90
1205;DHT22;592;48.764;9.174;2023-09-18T10:55:16;19.90;99.90
1205;DHT22;592;48.764;9.174;2023-09-18T10:57:50;19.80;99.90
1205;DHT22;592;48.764;9.174;2023-09-18T11:00:17;19.70;99.90
1205;DHT22;592;48.764;9.174;2023-09-18T11:02:49;19.70;99.90
1205;DHT22;592;48.764;9.174;2023-09-18T11:05:28;19.60;99.90
1205;DHT22;592;48.764;9.174;2023-09-18T11:08:26;19.60;99.90
1205;DHT22;592;48.764;9.174;2023-09-18T11:11:00;19.60;99.90
1205;DHT22;592;48.764;9.174;2023-09-18T11:13:31;19.60;99.90
1205;DHT22;592;48.764;9.174;2023-09-18T11:16:02;19.60;99.90
1205;DHT22;592;48.764;9.174;2023-09-18T11:18:37;19.50;99.90
1205;DHT22;592;48.764;9.174;2023-09-18T11:21:07;19.50;99.90
1205;DHT22;592;48.764;9.174;2023-09-18T11:23:35;19.50;99.90
1205;DHT22;592;48.764;9.174;2023-09-18T11:26:04;19.50;99.90
1205;DHT22;592;48.764;9.174;2023-09-18T11:28:31;19.60;99.90
1205;DHT22;592;48.764;9.174;2023-09-18T11:30:59;19.50;99.90
1205;DHT22;592;48.764;9.174;2023-09-18T11:33:31;19.70;99.90
1205;DHT22;592;48.764;9.174;2023-09-18T11:36:04;20.00;99.90
1205;DHT22;592;48.764;9.174;2023-09-18T11:38:32;19.70;99.90
1205;DHT22;592;48.764;9.174;2023-09-18T11:43:43;19.70;99.90
1205;DHT22;592;48.764;9.174;2023-09-18T11:46:10;19.80;99.90
1205;DHT22;592;48.764;9.174;2023-09-18T11:48:41;19.90;99.90
1205;DHT22;592;48.764;9.174;2023-09-18T11:51:10;20.10;99.90
1205;DHT22;592;48.764;9.174;2023-09-18T11:53:38;20.10;99.90
1205;DHT22;592;48.764;9.174;2023-09-18T11:56:10;20.10;99.90
1205;DHT22;592;48.764;9.174;2023-09-18T11:58:45;20.10;99.90
1205;DHT22;592;48.764;9.174;2023-09-18T12:01:12;20.20;99.90
1205;DHT22;592;48.764;9.174;2023-09-18T12:03:40;20.30;99.90
1205;DHT22;592;48.764;9.174;2023-09-18T12:06:07;20.40;99.90
1205;DHT22;592;48.764;9.174;2023-09-18T12:08:36;20.40;99.90
1205;DHT22;592;48.764;9.174;2023-09-18T12:11:05;20.30;99.90
1205;DHT22;592;48.764;9.174;2023-09-18T12:13:32;20.40;99.90
1205;DHT22;592;48.764;9.174;2023-09-18T12:16:00;20.50;99.90
1205;DHT22;592;48.764;9.174;2023-09-18T12:18:27;20.50;99.90
1205;DHT22;592;48.764;9.174;2023-09-18T12:20:55;20.60;99.90
1205;DHT22;592;48.764;9.174;2023-09-18T12:23:25;20.40;99.90
1205;DHT22;592;48.764;9.174;2023-09-18T12:25:59;20.30;99.90
1205;DHT22;592;48.764;9.174;2023-09-18T12:28:26;20.20;99.90
1205;DHT22;592;48.764;9.174;2023-09-18T12:30:54;20.20;99.90
1205;DHT22;592;48.764;9.174;2023-09-18T12:33:22;20.10;99.90
1205;DHT22;592;48.764;9.174;2023-09-18T12:35:49;20.20;99.90
1205;DHT22;592;48.764;9.174;2023-09-18T12:38:17;20.50;99.90
1205;DHT22;592;48.764;9.174;2023-09-18T12:40:45;20.70;99.90
1205;DHT22;592;48.764;9.174;2023-09-18T12:43:13;20.90;99.90
1205;DHT22;592;48.764;9.174;2023-09-18T12:45:41;21.00;99.90
1205;DHT22;592;48.764;9.174;2023-09-18T12:48:09;21.30;99.90
1205;DHT22;592;48.764;9.174;2023-09-18T12:50:37;21.50;99.90
1205;DHT22;592;48.764;9.174;2023-09-18T12:53:08;21.80;99.90
1205;DHT22;592;48.764;9.174;2023-09-18T12:55:35;21.60;99.90
1205;DHT22;592;48.764;9.174;2023-09-18T12:58:03;22.00;99.90
1205;DHT22;592;48.764;9.174;2023-09-18T13:00:35;21.70;99.90
1205;DHT22;592;48.764;9.174;2023-09-18T13:03:02;21.90;99.90
1205;DHT22;592;48.764;9.174;2023-09-18T13:05:30;21.80;99.90
1205;DHT22;592;48.764;9.174;2023-09-18T13:08:02;21.80;99.90
1205;DHT22;592;48.764;9.174;2023-09-18T13:10:29;21.80;99.90
1205;DHT22;592;48.764;9.174;2023-09-18T13:12:55;21.80;99.90
1205;DHT22;592;48.764;9.174;2023-09-18T13:15:27;22.20;99.90
1205;DHT22;592;48.764;9.174;2023-09-18T13:17:56;22.10;99.90
1205;DHT22;592;48.764;9.174;2023-09-18T13:20:26;22.00;99.90
1205;DHT22;592;48.764;9.174;2023-09-18T13:22:55;22.10;99.90
1205;DHT22;592;48.764;9.174;2023-09-18T13:25:23;22.10;99.90
1205;DHT22;592;48.764;9.174;2023-09-18T13:27:51;21.90;99.90
1205;DHT22;592;48.764;9.174;2023-09-18T13:30:18;22.10;99.90
1205;DHT22;592;48.764;9.174;2023-09-18T13:32:47;22.10;99.90
1205;DHT22;592;48.764;9.174;2023-09-18T13:35:16;22.50;99.90
1205;DHT22;592;48.764;9.174;2023-09-18T13:37:43;22.60;99.90
1205;DHT22;592;48.764;9.174;2023-09-18T13:40:11;23.30;99.90
1205;DHT22;592;48.764;9.174;2023-09-18T13:42:38;23.60;99.90
1205;DHT22;592;48.764;9.174;2023-09-18T13:45:06;23.60;99.90
1205;DHT22;592;48.764;9.174;2023-09-18T13:47:33;23.60;99.90
1205;DHT22;592;48.764;9.174;2023-09-18T13:50:01;23.50;99.90
1205;DHT22;592;48.764;9.174;2023-09-18T13:52:30;23.20;99.90
1205;DHT22;592;48.764;9.174;2023-09-18T13:54:57;23.00;99.90
1205;DHT22;592;48.764;9.174;2023-09-18T13:57:24;23.10;99.90
1205;DHT22;592;48.764;9.174;2023-09-18T13:59:52;23.20;99.90
1205;DHT22;592;48.764;9.174;2023-09-18T14:02:19;23.30;99.90
1205;DHT22;592;48.764;9.174;2023-09-18T14:04:46;23.50;99.90
1205;DHT22;592;48.764;9.174;2023-09-18T14:07:12;23.30;99.90
1205;DHT22;592;48.764;9.174;2023-09-18T14:09:40;23.10;99.90
1205;DHT22;592;48.764;9.174;2023-09-18T14:12:07;22.80;99.90
1205;DHT22;592;48.764;9.174;2023-09-18T14:14:34;22.90;99.90
1205;DHT22;592;48.764;9.174;2023-09-18T14:17:01;23.00;99.90
1205;DHT22;592;48.764;9.174;2023-09-18T14:19:29;23.10;99.90
1205;DHT22;592;48.764;9.174;2023-09-18T14:21:56;23.10;99.90
1205;DHT22;592;48.764;9.174;2023-09-18T14:24:22;23.30;99.90
1205;DHT22;592;48.764;9.174;2023-09-18T14:26:52;23.30;99.90
1205;DHT22;592;48.764;9.174;2023-09-18T14:29:21;23.30;99.90
1205;DHT22;592;48.764;9.174;2023-09-18T14:31:48;23.50;99.90
1205;DHT22;592;48.764;9.174;2023-09-18T14:34:15;23.50;99.90
1205;DHT22;592;48.764;9.174;2023-09-18T14:36:42;23.70;99.90
1205;DHT22;592;48.764;9.174;2023-09-18T14:39:10;23.50;99.90
1205;DHT22;592;48.764;9.174;2023-09-18T14:41:38;23.60;99.90
1205;DHT22;592;48.764;9.174;2023-09-18T14:44:08;23.60;99.90
1205;DHT22;592;48.764;9.174;2023-09-18T14:46:36;23.80;99.90
1205;DHT22;592;48.764;9.174;2023-09-18T14:49:04;24.00;99.90
1205;DHT22;592;48.764;9.174;2023-09-18T14:51:31;24.30;99.90
1205;DHT22;592;48.764;9.174;2023-09-18T14:53:58;24.10;99.90
1205;DHT22;592;48.764;9.174;2023-09-18T14:56:25;24.10;99.90
1205;DHT22;592;48.764;9.174;2023-09-18T14:58:51;24.10;99.70
1205;DHT22;592;48.764;9.174;2023-09-18T15:01:19;23.90;99.90
1205;DHT22;592;48.764;9.174;2023-09-18T15:03:47;24.50;99.30
1205;DHT22;592;48.764;9.174;2023-09-18T15:06:14;24.40;99.80
1205;DHT22;592;48.764;9.174;2023-09-18T15:08:41;23.80;98.70
1205;DHT22;592;48.764;9.174;2023-09-18T15:11:08;23.80;99.70
1205;DHT22;592;48.764;9.174;2023-09-18T15:13:35;24.00;99.70
1205;DHT22;592;48.764;9.174;2023-09-18T15:16:02;24.00;99.70
1205;DHT22;592;48.764;9.174;2023-09-18T15:18:30;23.70;99.50
1205;DHT22;592;48.764;9.174;2023-09-18T15:20:56;23.60;99.70
1205;DHT22;592;48.764;9.174;2023-09-18T15:23:24;23.50;99.90
1205;DHT22;592;48.764;9.174;2023-09-18T15:25:51;23.70;99.40
1205;DHT22;592;48.764;9.174;2023-09-18T15:28:19;24.10;99.00
1205;DHT22;592;48.764;9.174;2023-09-18T15:30:46;24.20;99.70
1205;DHT22;592;48.764;9.174;2023-09-18T15:33:13;24.00;98.70
1205;DHT22;592;48.764;9.174;2023-09-18T15:35:44;24.40;98.90
1205;DHT22;592;48.764;9.174;2023-09-18T15:38:11;24.30;98.50
1205;DHT22;592;48.764;9.174;2023-09-18T15:40:38;24.50;98.50
1205;DHT22;592;48.764;9.174;2023-09-18T15:43:04;24.10;98.60
1205;DHT22;592;48.764;9.174;2023-09-18T15:45:31;23.90;99.00
1205;DHT22;592;48.764;9.174;2023-09-18T15:48:00;23.80;99.30
1205;DHT22;592;48.764;9.174;2023-09-18T15:50:27;24.10;99.00
1205;DHT22;592;48.764;9.174;2023-09-18T15:52:55;23.80;99.00
1205;DHT22;592;48.764;9.174;2023-09-18T15:55:22;23.80;98.80
1205;DHT22;592;48.764;9.174;2023-09-18T15:57:49;24.20;99.10
1205;DHT22;592;48.764;9.174;2023-09-18T16:00:16;24.60;99.10
1205;DHT22;592;48.764;9.174;2023-09-18T16:02:44;24.50;98.50
1205;DHT22;592;48.764;9.174;2023-09-18T16:05:11;24.20;98.60
1205;DHT22;592;48.764;9.174;2023-09-18T16:07:40;24.00;99.20
1205;DHT22;592;48.764;9.174;2023-09-18T16:10:09;23.80;98.90
1205;DHT22;592;48.764;9.174;2023-09-18T16:12:36;23.50;99.30
1205;DHT22;592;48.764;9.174;2023-09-18T16:15:03;23.30;99.50
1205;DHT22;592;48.764;9.174;2023-09-18T16:17:30;23.20;99.60
1205;DHT22;592;48.764;9.174;2023-09-18T16:19:57;23.10;99.60
1205;DHT22;592;48.764;9.174;2023-09-18T16:22:26;22.80;99.90
1205;DHT22;592;48.764;9.174;2023-09-18T16:24:53;22.70;99.80